Terminal Aerodrome Forecast
Issued by NWS

Home | Current Version | Previous Version | Text Only | Print | Product List | Glossary On
Versions: 1 2 3 4 5 6 7 8 9 10 11 12 13 14 15 16 17 18 19 20 21 22 23 24 25 26 27 28 29 30
000
FTUS41 KRNK 260540
TAFBCB
TAF
KBCB 260540Z 2606/2706 09007KT 5SM -RA BKN004 OVC008
     FM261500 04005KT 6SM -SHRA OVC009
     FM262100 36005KT P6SM OVC018
     FM270100 30007KT 6SM BR SCT015
     FM270400 31006KT 4SM BR OVC003=

USA.gov is the U.S. government's official web portal to all federal, state and local government web resources and services.